createdAt,value
2016-12-13T00:00:25.623Z,1012.93
2016-12-13T00:01:18.807Z,1012.95
2016-12-13T00:01:45.306Z,1012.92
2016-12-13T00:02:11.801Z,1012.95
2016-12-13T00:02:39.300Z,1012.91
2016-12-13T00:03:01.044Z,1012.82
2016-12-13T00:03:28.546Z,1012.92
2016-12-13T00:03:55.046Z,1012.94
2016-12-13T00:04:24.491Z,1012.90
2016-12-13T00:04:46.230Z,1012.97
2016-12-13T00:05:07.973Z,1012.95
2016-12-13T00:05:29.719Z,1012.98
2016-12-13T00:05:51.467Z,1012.94
2016-12-13T00:06:22.727Z,1012.91
2016-12-13T00:07:20.993Z,1012.95
2016-12-13T00:07:48.311Z,1012.95
2016-12-13T00:08:12.947Z,1012.91
2016-12-13T00:09:02.231Z,1013.02
2016-12-13T00:09:24.009Z,1012.91
2016-12-13T00:09:45.722Z,1012.95
2016-12-13T00:10:07.476Z,1012.91
2016-12-13T00:10:34.033Z,1012.95
2016-12-13T00:10:56.754Z,1012.86
2016-12-13T00:11:26.169Z,1012.92
2016-12-13T00:11:51.518Z,1013.02
2016-12-13T00:12:20.883Z,1013.00
2016-12-13T00:12:52.155Z,1012.93
2016-12-13T00:13:14.891Z,1013.00
2016-12-13T00:13:37.667Z,1012.90
2016-12-13T00:14:04.156Z,1012.98
2016-12-13T00:15:07.315Z,1012.90
2016-12-13T00:15:37.448Z,1013.02
2016-12-13T00:16:00.166Z,1012.97
2016-12-13T00:16:26.844Z,1012.89
2016-12-13T00:16:48.569Z,1012.90
2016-12-13T00:17:10.310Z,1012.98
2016-12-13T00:17:32.045Z,1012.92
2016-12-13T00:17:53.808Z,1013.01
2016-12-13T00:18:15.549Z,1012.92
2016-12-13T00:18:37.342Z,1013.01
2016-12-13T00:19:00.075Z,1012.96
2016-12-13T00:19:23.806Z,1012.88
2016-12-13T00:19:50.355Z,1012.92
2016-12-13T00:20:43.360Z,1012.93
2016-12-13T00:21:37.365Z,1012.86
2016-12-13T00:22:00.144Z,1012.91
2016-12-13T00:24:13.318Z,1012.86
2016-12-13T00:24:35.043Z,1012.89
2016-12-13T00:24:56.826Z,1012.84
2016-12-13T00:25:18.549Z,1012.94
2016-12-13T00:25:40.264Z,1012.95
2016-12-13T00:26:01.997Z,1012.93
2016-12-13T00:26:26.276Z,1012.82
2016-12-13T00:26:57.803Z,1012.72
2016-12-13T00:27:19.523Z,1012.82
2016-12-13T00:27:46.028Z,1012.82
2016-12-13T00:28:13.546Z,1012.84
2016-12-13T00:28:41.034Z,1012.81
2016-12-13T00:29:12.304Z,1012.77
2016-12-13T00:30:14.334Z,1012.90
2016-12-13T00:31:22.130Z,1012.84
2016-12-13T00:31:43.874Z,1012.81
2016-12-13T00:32:05.600Z,1012.82
2016-12-13T00:32:32.114Z,1012.78
2016-12-13T00:33:03.363Z,1012.82
2016-12-13T00:33:27.179Z,1012.81
2016-12-13T00:33:53.715Z,1012.72
2016-12-13T00:34:15.455Z,1012.75
2016-12-13T00:34:42.024Z,1012.80
2016-12-13T00:35:08.560Z,1012.78
2016-12-13T00:36:01.563Z,1012.83
2016-12-13T00:36:26.221Z,1012.87
2016-12-13T00:36:48.954Z,1012.76
2016-12-13T00:37:20.218Z,1012.78
2016-12-13T00:37:41.993Z,1012.81
2016-12-13T00:38:08.485Z,1012.76
2016-12-13T00:38:33.024Z,1012.71
2016-12-13T00:38:54.809Z,1012.74
2016-12-13T00:39:16.592Z,1012.72
2016-12-13T00:39:41.008Z,1012.70
2016-12-13T00:40:03.717Z,1012.75
2016-12-13T00:40:29.125Z,1012.71
2016-12-13T00:41:18.458Z,1012.81
2016-12-13T00:41:44.952Z,1012.79
2016-12-13T00:42:06.687Z,1012.77
2016-12-13T00:42:37.948Z,1012.76
2016-12-13T00:43:35.978Z,1012.73
2016-12-13T00:43:57.701Z,1012.68
2016-12-13T00:44:47.991Z,1012.88
2016-12-13T00:45:41.007Z,1012.60
2016-12-13T00:46:05.697Z,1012.63
2016-12-13T00:46:28.474Z,1012.75
2016-12-13T00:47:31.016Z,1012.61
2016-12-13T00:47:52.730Z,1012.61
2016-12-13T00:48:20.233Z,1012.67
2016-12-13T00:48:41.950Z,1012.68
2016-12-13T00:49:11.053Z,1012.68
2016-12-13T00:49:32.776Z,1012.70
2016-12-13T00:50:21.063Z,1012.70
2016-12-13T00:51:15.062Z,1012.64
2016-12-13T00:51:36.933Z,1012.63
2016-12-13T00:51:58.677Z,1012.73
2016-12-13T00:52:21.442Z,1012.66
2016-12-13T00:52:49.000Z,1012.69
2016-12-13T00:53:57.289Z,1012.70
2016-12-13T00:54:26.644Z,1012.57
2016-12-13T00:54:49.375Z,1012.64
2016-12-13T00:55:13.771Z,1012.61
2016-12-13T00:55:36.514Z,1012.66
2016-12-13T00:55:58.281Z,1012.59
2016-12-13T00:56:21.037Z,1012.67
2016-12-13T00:56:48.591Z,1012.66
2016-12-13T00:57:10.341Z,1012.62
2016-12-13T00:57:59.570Z,1012.62
2016-12-13T00:58:58.215Z,1012.59
2016-12-13T00:59:21.988Z,1012.64
2016-12-13T00:59:45.746Z,1012.58
2016-12-13T01:00:14.317Z,1012.69
2016-12-13T01:00:40.791Z,1012.56
2016-12-13T01:01:02.866Z,1012.66
2016-12-13T01:02:22.429Z,1012.45
2016-12-13T01:02:44.306Z,1012.53
2016-12-13T01:03:06.065Z,1012.59
2016-12-13T01:03:30.686Z,1012.61
2016-12-13T01:04:01.951Z,1012.63
2016-12-13T01:04:29.372Z,1012.53
2016-12-13T01:05:29.297Z,1012.59
2016-12-13T01:06:28.063Z,1012.57
2016-12-13T01:06:52.743Z,1012.64
2016-12-13T01:07:23.092Z,1012.53
2016-12-13T01:07:45.881Z,1012.57
2016-12-13T01:08:39.761Z,1012.54
2016-12-13T01:09:06.287Z,1012.65
2016-12-13T01:09:28.070Z,1012.59
2016-12-13T01:09:50.799Z,1012.58
2016-12-13T01:10:51.298Z,1012.46
2016-12-13T01:11:16.783Z,1012.50
2016-12-13T01:11:38.518Z,1012.28
2016-12-13T01:12:37.786Z,1012.63
2016-12-13T01:13:36.542Z,1012.52
2016-12-13T01:14:08.486Z,1012.52
2016-12-13T01:14:40.810Z,1012.62
2016-12-13T01:15:03.550Z,1012.60
2016-12-13T01:15:58.343Z,1012.53
2016-12-13T01:16:29.599Z,1012.54
2016-12-13T01:17:03.924Z,1012.49
2016-12-13T01:18:23.289Z,1012.47
2016-12-13T01:18:45.044Z,1012.54
2016-12-13T01:19:06.798Z,1012.61
2016-12-13T01:19:28.688Z,1012.72
2016-12-13T01:19:50.915Z,1012.68
2016-12-13T01:20:17.732Z,1012.69
2016-12-13T01:20:44.313Z,1012.55
2016-12-13T01:21:39.396Z,1012.49
2016-12-13T01:22:04.892Z,1012.53
2016-12-13T01:22:26.625Z,1012.54
2016-12-13T01:22:56.091Z,1012.53
2016-12-13T01:23:21.480Z,1012.54
2016-12-13T01:23:53.763Z,1012.40
2016-12-13T01:25:03.035Z,1012.61
2016-12-13T01:25:34.336Z,1012.44
2016-12-13T01:26:02.825Z,1012.38
2016-12-13T01:26:31.687Z,1012.55
2016-12-13T01:26:58.209Z,1012.46
2016-12-13T01:27:51.870Z,1012.50
2016-12-13T01:28:25.663Z,1012.40
2016-12-13T01:28:49.947Z,1012.46
2016-12-13T01:30:16.692Z,1012.51
2016-12-13T01:30:43.232Z,1012.63
2016-12-13T01:31:06.006Z,1012.69
2016-12-13T01:31:59.996Z,1012.66
2016-12-13T01:32:24.316Z,1012.82
2016-12-13T01:32:47.049Z,1012.68
2016-12-13T01:33:14.548Z,1012.75
2016-12-13T01:33:41.086Z,1012.63
2016-12-13T01:34:07.577Z,1012.53
2016-12-13T01:35:12.742Z,1012.61
2016-12-13T01:35:40.237Z,1012.59
2016-12-13T01:36:01.998Z,1012.64
2016-12-13T01:36:29.481Z,1012.65
2016-12-13T01:37:00.768Z,1012.59
2016-12-13T01:37:22.488Z,1012.62
2016-12-13T01:37:45.246Z,1012.61
2016-12-13T01:38:08.969Z,1012.55
2016-12-13T01:38:36.468Z,1012.60
2016-12-13T01:39:34.308Z,1012.64
2016-12-13T01:39:56.040Z,1012.59
2016-12-13T01:40:21.779Z,1012.46
2016-12-13T01:40:48.275Z,1012.53
2016-12-13T01:41:12.006Z,1012.59
2016-12-13T01:41:34.773Z,1012.50
2016-12-13T01:41:56.500Z,1012.47
2016-12-13T01:42:19.322Z,1012.56
2016-12-13T01:43:44.518Z,1012.47
2016-12-13T01:44:11.028Z,1012.50
2016-12-13T01:44:42.784Z,1012.40
2016-12-13T01:45:04.512Z,1012.48
2016-12-13T01:45:26.364Z,1012.42
2016-12-13T01:45:48.104Z,1012.40
2016-12-13T01:46:43.097Z,1012.42
2016-12-13T01:47:16.350Z,1012.39
2016-12-13T01:47:43.854Z,1012.44
2016-12-13T01:49:25.077Z,1012.46
2016-12-13T01:49:49.648Z,1012.53
2016-12-13T01:50:12.367Z,1012.41
2016-12-13T01:51:15.917Z,1012.50
2016-12-13T01:51:42.520Z,1012.55
2016-12-13T01:52:04.548Z,1012.48
2016-12-13T01:52:29.304Z,1012.35
2016-12-13T01:54:08.846Z,1012.33
2016-12-13T01:55:40.650Z,1012.39
2016-12-13T01:56:02.502Z,1012.29
2016-12-13T01:56:33.781Z,1012.38
2016-12-13T01:59:13.222Z,1012.46
2016-12-13T02:06:34.323Z,1012.61
2016-12-13T02:15:28.395Z,1012.41
2016-12-13T02:18:37.134Z,1012.51
2016-12-13T02:20:54.636Z,1012.42
2016-12-13T02:21:17.419Z,1012.34
2016-12-13T02:21:39.170Z,1012.30
2016-12-13T02:22:05.712Z,1012.30
2016-12-13T02:25:16.822Z,1012.40
2016-12-13T02:30:13.075Z,1012.38
2016-12-13T02:31:26.193Z,1012.34
2016-12-13T02:32:02.218Z,1012.40
2016-12-13T02:34:34.242Z,1012.29
2016-12-13T02:43:46.261Z,1012.27
2016-12-13T02:45:01.958Z,1012.17
2016-12-13T02:46:16.109Z,1012.29
2016-12-13T02:48:34.480Z,1012.15
2016-12-13T02:49:11.392Z,1012.28
2016-12-13T02:51:33.266Z,1012.14
2016-12-13T02:52:10.113Z,1012.29
2016-12-13T02:54:48.618Z,1012.28
2016-12-13T02:58:24.720Z,1011.80
2016-12-13T02:58:53.336Z,1012.18
2016-12-13T02:59:30.376Z,1012.11
2016-12-13T03:02:05.445Z,1012.02
2016-12-13T03:02:32.114Z,1012.20
2016-12-13T03:03:42.477Z,1012.13
2016-12-13T03:07:55.329Z,1012.10
2016-12-13T03:13:06.896Z,1012.11
2016-12-13T03:16:59.777Z,1012.05
2016-12-13T03:17:28.326Z,1011.98
2016-12-13T03:17:54.850Z,1011.93
2016-12-13T03:19:13.714Z,1011.89
2016-12-13T03:20:22.058Z,1011.79
2016-12-13T03:20:53.362Z,1011.88
2016-12-13T03:21:27.451Z,1011.69
2016-12-13T03:22:42.296Z,1011.74
2016-12-13T03:23:52.770Z,1011.81
2016-12-13T03:25:45.613Z,1011.76
2016-12-13T04:04:50.398Z,1012.61
2016-12-13T04:05:16.909Z,1011.78
2016-12-13T04:05:38.623Z,1011.92
2016-12-13T04:06:05.111Z,1011.78
2016-12-13T04:06:26.854Z,1011.88
2016-12-13T04:07:25.437Z,1011.84
2016-12-13T04:07:51.868Z,1011.75
2016-12-13T04:08:53.053Z,1011.96
2016-12-13T04:10:34.369Z,1012.13
2016-12-13T04:10:56.162Z,1011.91
2016-12-13T04:13:36.237Z,1012.04
2016-12-13T04:14:07.893Z,1012.05
2016-12-13T04:14:43.925Z,1011.98
2016-12-13T04:15:08.157Z,1011.78
2016-12-13T04:15:35.659Z,1011.86
2016-12-13T04:16:07.941Z,1011.88
2016-12-13T04:17:14.125Z,1011.89
2016-12-13T04:17:38.464Z,1011.84
2016-12-13T04:18:01.261Z,1012.01
2016-12-13T04:19:03.888Z,1012.09
2016-12-13T04:19:30.200Z,1012.53
2016-12-13T04:19:54.568Z,1012.10
2016-12-13T04:20:16.294Z,1011.82
2016-12-13T04:20:42.846Z,1011.98
2016-12-13T04:21:06.571Z,1011.88
2016-12-13T04:21:37.847Z,1012.04
2016-12-13T04:22:05.353Z,1012.10
2016-12-13T04:23:04.113Z,1012.04
2016-12-13T04:23:35.218Z,1012.10
2016-12-13T04:24:33.086Z,1012.29
2016-12-13T04:25:04.348Z,1012.22
2016-12-13T04:25:35.614Z,1011.95
2016-12-13T04:26:02.113Z,1011.90
2016-12-13T04:26:26.775Z,1011.96
2016-12-13T04:28:18.567Z,1011.87
2016-12-13T04:28:46.063Z,1011.89
2016-12-13T04:29:12.575Z,1011.87
2016-12-13T04:29:34.412Z,1011.78
2016-12-13T04:30:06.543Z,1011.86
2016-12-13T04:32:20.513Z,1011.91
2016-12-13T04:32:46.071Z,1012.50
2016-12-13T04:33:12.592Z,1011.95
2016-12-13T04:34:14.940Z,1012.14
2016-12-13T04:35:03.211Z,1011.98
2016-12-13T04:35:30.302Z,1011.98
2016-12-13T04:36:28.635Z,1012.29
2016-12-13T04:38:42.824Z,1012.04
2016-12-13T04:39:10.358Z,1012.05
2016-12-13T04:39:42.427Z,1011.88
2016-12-13T04:40:45.846Z,1012.36
2016-12-13T04:43:47.753Z,1012.14
2016-12-13T04:44:13.500Z,1012.14
2016-12-13T04:45:19.012Z,1012.21
2016-12-13T04:48:27.167Z,1011.88
2016-12-13T04:49:02.465Z,1011.78
2016-12-13T04:50:50.291Z,1012.15
2016-12-13T04:51:24.481Z,1012.07
2016-12-13T04:53:44.726Z,1011.85
2016-12-13T04:54:11.462Z,1012.01
2016-12-13T04:55:07.226Z,1011.91
2016-12-13T04:55:38.347Z,1011.99
2016-12-13T04:56:14.381Z,1012.13
2016-12-13T04:56:51.087Z,1012.05
2016-12-13T04:57:59.247Z,1011.89
2016-12-13T04:58:36.287Z,1012.00
2016-12-13T04:59:22.932Z,1011.89
2016-12-13T05:01:43.614Z,1011.88
2016-12-13T05:03:01.650Z,1012.14
2016-12-13T05:03:35.265Z,1012.13
2016-12-13T05:04:38.517Z,1011.86
2016-12-13T05:05:05.015Z,1012.04
2016-12-13T05:26:50.409Z,1011.65
2016-12-13T05:27:46.102Z,1011.76
2016-12-13T05:28:16.412Z,1011.86
2016-12-13T05:32:56.263Z,1012.01
2016-12-13T05:41:31.819Z,1011.61
2016-12-13T05:50:06.428Z,1011.90
2016-12-13T05:51:26.231Z,1011.71
2016-12-13T05:52:15.316Z,1012.06
2016-12-13T05:59:39.892Z,1012.03
2016-12-13T06:01:02.479Z,1011.94
2016-12-13T06:04:51.941Z,1012.26
2016-12-13T06:05:47.493Z,1012.13
2016-12-13T06:12:30.306Z,1012.37
2016-12-13T06:14:55.776Z,1011.99
2016-12-13T06:19:53.087Z,1012.12
2016-12-13T06:21:35.520Z,1012.60
2016-12-13T06:24:26.610Z,1012.15
2016-12-13T06:24:48.380Z,1012.32
2016-12-13T06:25:22.345Z,1012.41
2016-12-13T06:27:54.790Z,1012.52
2016-12-13T06:28:28.118Z,1012.66
2016-12-13T06:34:01.937Z,1012.31
2016-12-13T06:35:41.910Z,1012.79
2016-12-13T06:37:24.945Z,1012.62
2016-12-13T06:39:54.542Z,1012.51
2016-12-13T06:40:23.591Z,1012.49
2016-12-13T06:43:50.835Z,1012.42
2016-12-13T06:44:22.142Z,1012.89
2016-12-13T06:49:50.657Z,1012.45
2016-12-13T06:50:14.521Z,1012.39
2016-12-13T06:52:55.540Z,1012.65
2016-12-13T06:54:46.304Z,1012.83
2016-12-13T06:55:44.273Z,1012.39
2016-12-13T06:57:50.863Z,1012.32
2016-12-13T06:58:24.764Z,1012.65
2016-12-13T06:59:29.895Z,1012.41
2016-12-13T06:59:56.403Z,1012.58
2016-12-13T07:00:21.723Z,1012.69
2016-12-13T07:00:43.497Z,1013.31
2016-12-13T07:01:48.657Z,1012.55
2016-12-13T07:02:16.173Z,1012.76
2016-12-13T07:03:15.001Z,1012.78
2016-12-13T07:04:26.968Z,1012.62
2016-12-13T07:04:57.166Z,1012.83
2016-12-13T07:05:26.535Z,1012.85
2016-12-13T07:05:54.023Z,1012.92
2016-12-13T07:06:16.831Z,1012.58
2016-12-13T07:06:41.768Z,1012.86
2016-12-13T07:07:09.271Z,1012.62
2016-12-13T07:07:33.748Z,1012.53
2016-12-13T07:08:00.067Z,1012.67
2016-12-13T07:09:31.713Z,1012.63
2016-12-13T07:10:31.065Z,1012.78
2016-12-13T07:10:56.320Z,1012.69
2016-12-13T07:11:28.589Z,1012.31
2016-12-13T07:12:58.176Z,1012.64
2016-12-13T07:14:38.771Z,1012.98
2016-12-13T07:15:06.470Z,1012.54
2016-12-13T07:15:32.990Z,1012.79
2016-12-13T07:16:23.267Z,1012.98
2016-12-13T07:16:49.766Z,1013.00
2016-12-13T07:17:18.270Z,1012.92
2016-12-13T07:17:40.032Z,1012.57
2016-12-13T07:18:02.766Z,1012.72
2016-12-13T07:18:29.275Z,1012.54
2016-12-13T07:18:52.011Z,1012.98
2016-12-13T07:19:13.747Z,1013.10
2016-12-13T07:19:40.264Z,1012.66
2016-12-13T07:20:02.001Z,1012.67
2016-12-13T07:20:29.547Z,1012.57
2016-12-13T07:20:56.090Z,1012.54
2016-12-13T07:21:17.828Z,1012.80
2016-12-13T07:21:39.560Z,1012.87
2016-12-13T07:22:35.491Z,1012.82
2016-12-13T07:22:57.230Z,1012.91
2016-12-13T07:23:18.992Z,1012.85
2016-12-13T07:23:40.869Z,1013.00
2016-12-13T07:24:02.755Z,1012.88
2016-12-13T07:24:24.445Z,1012.84
2016-12-13T07:24:46.216Z,1013.03
2016-12-13T07:25:08.945Z,1012.91
2016-12-13T07:25:57.206Z,1012.91
2016-12-13T07:26:19.979Z,1012.79
2016-12-13T07:26:41.728Z,1012.98
2016-12-13T07:27:04.467Z,1012.97
2016-12-13T07:27:26.192Z,1012.98
2016-12-13T07:27:48.928Z,1013.03
2016-12-13T07:28:10.648Z,1012.83
2016-12-13T07:28:32.376Z,1013.32
2016-12-13T07:28:54.125Z,1013.30
2016-12-13T07:29:52.437Z,1012.91
2016-12-13T07:30:18.936Z,1012.86
2016-12-13T07:30:41.672Z,1012.85
2016-12-13T07:31:09.232Z,1013.09
2016-12-13T07:31:31.029Z,1012.97
2016-12-13T07:31:57.545Z,1012.88
2016-12-13T07:32:20.275Z,1013.21
2016-12-13T07:32:42.035Z,1013.21
2016-12-13T07:33:04.776Z,1013.04
2016-12-13T07:33:31.278Z,1013.14
2016-12-13T07:33:53.035Z,1013.05
2016-12-13T07:34:20.544Z,1013.28
2016-12-13T07:34:42.293Z,1013.09
2016-12-13T07:35:06.027Z,1013.17
2016-12-13T07:35:27.759Z,1013.33
2016-12-13T07:35:50.479Z,1013.12
2016-12-13T07:36:13.219Z,1013.28
2016-12-13T07:37:08.206Z,1013.24
2016-12-13T07:37:56.446Z,1013.15
2016-12-13T07:38:46.692Z,1013.27
2016-12-13T07:39:13.178Z,1013.17
2016-12-13T07:39:35.896Z,1013.08
2016-12-13T07:40:02.395Z,1013.09
2016-12-13T07:40:24.136Z,1013.28
2016-12-13T07:40:50.671Z,1013.31
2016-12-13T07:41:17.168Z,1013.25
2016-12-13T07:42:10.193Z,1013.53
2016-12-13T07:42:58.445Z,1013.19
2016-12-13T07:43:25.947Z,1013.36
2016-12-13T07:43:53.451Z,1013.20
2016-12-13T07:44:15.180Z,1013.03
2016-12-13T07:44:36.920Z,1013.07
2016-12-13T07:45:08.199Z,1012.93
2016-12-13T07:45:31.226Z,1013.47
2016-12-13T07:45:52.992Z,1013.31
2016-12-13T07:46:19.491Z,1013.32
2016-12-13T07:46:48.764Z,1013.00
2016-12-13T07:47:46.571Z,1013.07
2016-12-13T07:48:09.448Z,1012.93
2016-12-13T07:48:39.143Z,1012.94
2016-12-13T07:49:05.652Z,1012.86
2016-12-13T07:49:32.154Z,1012.87
2016-12-13T07:49:54.090Z,1012.94
2016-12-13T07:50:15.790Z,1013.06
2016-12-13T07:50:39.550Z,1013.08
2016-12-13T07:51:04.378Z,1013.04
2016-12-13T07:51:35.512Z,1013.04
2016-12-13T07:52:07.296Z,1013.01
2016-12-13T07:52:34.808Z,1013.09
2016-12-13T07:53:01.336Z,1013.10
2016-12-13T07:53:23.126Z,1012.99
2016-12-13T07:53:45.853Z,1013.03
2016-12-13T07:54:38.104Z,1012.93
2016-12-13T07:55:01.848Z,1012.81
2016-12-13T07:55:33.121Z,1012.97
2016-12-13T07:55:54.864Z,1013.28
2016-12-13T07:56:16.600Z,1013.07
2016-12-13T07:56:39.386Z,1013.04
2016-12-13T07:57:10.653Z,1012.99
2016-12-13T07:57:42.407Z,1012.91
2016-12-13T07:58:04.138Z,1012.96
2016-12-13T07:58:58.138Z,1013.08
2016-12-13T07:59:46.358Z,1012.95
2016-12-13T08:00:13.858Z,1013.03
2016-12-13T08:00:35.602Z,1013.11
2016-12-13T08:01:28.586Z,1012.97
2016-12-13T08:01:51.314Z,1012.80
2016-12-13T08:02:17.824Z,1012.78
2016-12-13T08:02:39.564Z,1012.68
2016-12-13T08:03:02.296Z,1012.75
2016-12-13T08:03:57.992Z,1012.86
2016-12-13T08:04:20.772Z,1012.98
2016-12-13T08:04:44.557Z,1012.92
2016-12-13T08:05:06.278Z,1012.87
2016-12-13T08:05:29.014Z,1013.14
2016-12-13T08:05:50.755Z,1012.93
2016-12-13T08:06:12.486Z,1013.06
2016-12-13T08:06:34.233Z,1012.81
2016-12-13T08:07:50.974Z,1012.92
2016-12-13T08:08:13.694Z,1013.31
2016-12-13T08:09:08.700Z,1012.89
2016-12-13T08:09:31.465Z,1012.78
2016-12-13T08:09:53.192Z,1012.79
2016-12-13T08:10:15.935Z,1012.91
2016-12-13T08:10:42.551Z,1013.28
2016-12-13T08:11:14.808Z,1013.33
2016-12-13T08:11:37.003Z,1013.16
2016-12-13T08:11:58.755Z,1013.01
2016-12-13T08:12:20.512Z,1012.94
2016-12-13T08:12:43.281Z,1012.85
2016-12-13T08:13:05.016Z,1013.19
2016-12-13T08:13:33.979Z,1012.94
2016-12-13T08:13:59.449Z,1012.87
2016-12-13T08:14:52.592Z,1012.94
2016-12-13T08:15:55.857Z,1012.97
2016-12-13T08:16:22.366Z,1013.09
2016-12-13T08:16:48.881Z,1013.09
2016-12-13T08:17:10.621Z,1013.08
2016-12-13T08:17:32.348Z,1013.06
2016-12-13T08:17:54.076Z,1012.99
2016-12-13T08:18:16.819Z,1013.09
2016-12-13T08:18:39.564Z,1013.06
2016-12-13T08:19:06.049Z,1013.02
2016-12-13T08:19:32.654Z,1013.10
2016-12-13T08:19:55.387Z,1013.13
2016-12-13T08:20:18.139Z,1013.26
2016-12-13T08:20:45.639Z,1013.03
2016-12-13T08:21:39.658Z,1012.99
2016-12-13T08:22:02.383Z,1012.98
2016-12-13T08:23:00.145Z,1013.02
2016-12-13T08:23:21.883Z,1013.01
2016-12-13T08:23:49.373Z,1012.98
2016-12-13T08:24:11.100Z,1013.10
2016-12-13T08:24:32.830Z,1013.03
2016-12-13T08:25:04.101Z,1013.10
2016-12-13T08:25:26.850Z,1012.88
2016-12-13T08:26:19.862Z,1013.13
2016-12-13T08:26:44.204Z,1012.98
2016-12-13T08:27:05.929Z,1012.96
2016-12-13T08:27:27.679Z,1012.90
2016-12-13T08:28:15.929Z,1012.98
2016-12-13T08:28:38.658Z,1013.21
2016-12-13T08:29:00.393Z,1013.12
2016-12-13T08:29:26.887Z,1013.06
2016-12-13T08:29:48.621Z,1013.07
2016-12-13T08:30:10.381Z,1012.87
2016-12-13T08:30:34.140Z,1013.13
2016-12-13T08:30:56.871Z,1013.08
2016-12-13T08:31:24.387Z,1012.89
2016-12-13T08:31:46.191Z,1012.82
2016-12-13T08:32:10.435Z,1012.92
2016-12-13T08:32:32.267Z,1012.88
2016-12-13T08:32:55.012Z,1012.80
2016-12-13T08:33:17.757Z,1012.98
2016-12-13T08:33:45.266Z,1013.30
2016-12-13T08:34:07.120Z,1012.89
2016-12-13T08:34:38.389Z,1013.25
2016-12-13T08:35:04.898Z,1012.83
2016-12-13T08:35:31.405Z,1012.73
2016-12-13T08:35:53.199Z,1012.69
2016-12-13T08:36:15.924Z,1012.70
2016-12-13T08:37:40.293Z,1012.96
2016-12-13T08:38:06.800Z,1012.69
2016-12-13T08:38:28.548Z,1012.59
2016-12-13T08:38:56.049Z,1012.66
2016-12-13T08:39:17.825Z,1012.66
2016-12-13T08:40:35.164Z,1012.85
2016-12-13T08:40:56.914Z,1012.75
2016-12-13T08:41:18.626Z,1012.86
2016-12-13T08:41:40.385Z,1012.80
2016-12-13T08:42:34.381Z,1012.69
2016-12-13T08:43:28.202Z,1012.71
2016-12-13T08:43:51.943Z,1012.96
2016-12-13T08:44:18.572Z,1012.87
2016-12-13T08:45:12.589Z,1012.58
2016-12-13T08:45:39.085Z,1012.98
2016-12-13T08:46:10.348Z,1012.57
2016-12-13T08:46:41.618Z,1012.52
2016-12-13T08:47:03.364Z,1012.69
2016-12-13T08:47:25.091Z,1012.68
2016-12-13T08:47:46.815Z,1012.85
2016-12-13T08:48:11.281Z,1012.99
2016-12-13T08:48:36.592Z,1012.70
2016-12-13T08:49:08.866Z,1012.75
2016-12-13T08:49:30.594Z,1012.94
2016-12-13T08:49:52.340Z,1012.90
2016-12-13T08:50:14.068Z,1012.54
2016-12-13T08:50:36.791Z,1012.60
2016-12-13T08:51:04.293Z,1012.64
2016-12-13T08:51:26.044Z,1012.64
2016-12-13T08:51:47.767Z,1012.62
2016-12-13T08:52:09.724Z,1012.60
2016-12-13T08:52:57.828Z,1012.76
2016-12-13T08:53:19.570Z,1012.75
2016-12-13T08:54:07.852Z,1012.68
2016-12-13T08:54:29.581Z,1012.69
2016-12-13T08:54:51.435Z,1013.14
2016-12-13T08:55:13.164Z,1012.90
2016-12-13T08:55:34.885Z,1012.89
2016-12-13T08:56:01.377Z,1012.97
2016-12-13T08:56:23.102Z,1012.48
2016-12-13T08:56:44.825Z,1012.72
2016-12-13T08:57:06.546Z,1012.72
2016-12-13T08:57:29.286Z,1012.63
2016-12-13T08:57:51.028Z,1012.59
2016-12-13T08:58:12.779Z,1012.57
2016-12-13T08:58:35.487Z,1012.63
2016-12-13T08:59:03.978Z,1012.52
2016-12-13T08:59:25.705Z,1012.65
2016-12-13T08:59:47.449Z,1012.53
2016-12-13T09:00:09.177Z,1012.66
2016-12-13T09:00:30.901Z,1012.80
2016-12-13T09:01:22.822Z,1012.92
2016-12-13T09:01:45.553Z,1012.69
2016-12-13T09:02:08.263Z,1012.54
2016-12-13T09:02:30.007Z,1012.83
2016-12-13T09:02:51.761Z,1012.82
2016-12-13T09:03:13.481Z,1012.78
2016-12-13T09:03:36.224Z,1012.64
2016-12-13T09:04:02.736Z,1012.69
2016-12-13T09:04:29.241Z,1012.94
2016-12-13T09:04:50.964Z,1012.74
2016-12-13T09:05:17.462Z,1012.79
2016-12-13T09:05:49.734Z,1012.65
2016-12-13T09:06:11.467Z,1012.73
2016-12-13T09:06:37.966Z,1012.82
2016-12-13T09:06:59.702Z,1012.66
2016-12-13T09:07:21.435Z,1012.96
2016-12-13T09:07:44.161Z,1012.80
2016-12-13T09:08:10.661Z,1012.69
2016-12-13T09:08:32.409Z,1012.75
2016-12-13T09:08:55.134Z,1012.71
2016-12-13T09:09:19.496Z,1012.78
2016-12-13T09:10:09.747Z,1012.92
2016-12-13T09:10:41.007Z,1012.70
2016-12-13T09:11:08.510Z,1012.84
2016-12-13T09:11:30.265Z,1012.91
2016-12-13T09:11:56.769Z,1012.91
2016-12-13T09:12:23.123Z,1012.78
2016-12-13T09:12:48.897Z,1012.80
2016-12-13T09:13:10.655Z,1012.81
2016-12-13T09:13:34.403Z,1012.90
2016-12-13T09:14:27.393Z,1012.89
2016-12-13T09:14:49.137Z,1012.74
2016-12-13T09:15:15.646Z,1012.92
2016-12-13T09:15:42.158Z,1013.07
2016-12-13T09:16:08.652Z,1013.04
2016-12-13T09:16:30.398Z,1013.03
2016-12-13T09:16:52.127Z,1012.91
2016-12-13T09:17:14.858Z,1012.75
2016-12-13T09:17:36.590Z,1012.69
2016-12-13T09:17:58.318Z,1013.08
2016-12-13T09:18:24.833Z,1013.00
2016-12-13T09:18:46.559Z,1012.71
2016-12-13T09:19:08.297Z,1013.01
2016-12-13T09:19:34.792Z,1012.82
2016-12-13T09:19:56.510Z,1012.83
2016-12-13T09:20:19.294Z,1012.80
2016-12-13T09:20:41.030Z,1012.87
2016-12-13T09:21:02.763Z,1012.76
2016-12-13T09:21:24.479Z,1012.79
2016-12-13T09:21:46.209Z,1012.81
2016-12-13T09:22:07.945Z,1012.78
2016-12-13T09:22:29.671Z,1012.64
2016-12-13T09:22:51.392Z,1012.87
2016-12-13T09:23:17.886Z,1012.81
2016-12-13T09:23:42.365Z,1012.85
2016-12-13T09:24:04.110Z,1012.68
2016-12-13T09:24:30.603Z,1012.83
2016-12-13T09:25:18.825Z,1012.63
2016-12-13T09:25:40.568Z,1012.64
2016-12-13T09:26:02.299Z,1012.76
2016-12-13T09:26:24.018Z,1012.92
2016-12-13T09:26:46.737Z,1013.03
2016-12-13T09:27:08.459Z,1012.90
2016-12-13T09:27:34.959Z,1012.74
2016-12-13T09:27:57.694Z,1012.84
2016-12-13T09:28:19.465Z,1012.74
2016-12-13T09:28:42.182Z,1013.05
2016-12-13T09:29:04.927Z,1012.76
2016-12-13T09:29:32.430Z,1012.78
2016-12-13T09:29:55.190Z,1012.68
2016-12-13T09:30:16.913Z,1012.68
2016-12-13T09:30:38.638Z,1012.68
2016-12-13T09:31:06.141Z,1012.83
2016-12-13T09:31:28.867Z,1012.76
2016-12-13T09:31:55.382Z,1013.01
2016-12-13T09:32:21.914Z,1012.89
2016-12-13T09:32:48.411Z,1012.79
2016-12-13T09:33:16.926Z,1012.84
2016-12-13T09:33:46.397Z,1012.81
2016-12-13T09:34:10.705Z,1012.93
2016-12-13T09:34:32.426Z,1013.14
2016-12-13T09:34:54.159Z,1012.97
2016-12-13T09:35:15.878Z,1012.80
2016-12-13T09:35:38.866Z,1012.79
2016-12-13T09:36:06.376Z,1012.81
2016-12-13T09:36:28.115Z,1012.78
2016-12-13T09:36:50.848Z,1012.76
2016-12-13T09:37:12.586Z,1012.92
2016-12-13T09:37:38.953Z,1012.80
2016-12-13T09:38:05.438Z,1012.77
2016-12-13T09:38:27.158Z,1012.83
2016-12-13T09:38:54.654Z,1012.92
2016-12-13T09:39:16.382Z,1012.75
2016-12-13T09:39:42.885Z,1012.93
2016-12-13T09:40:04.610Z,1013.01
2016-12-13T09:40:31.103Z,1012.76
2016-12-13T09:40:52.822Z,1012.63
2016-12-13T09:41:16.547Z,1012.61
2016-12-13T09:41:39.273Z,1012.77
2016-12-13T09:42:00.984Z,1012.95
2016-12-13T09:42:22.712Z,1012.83
2016-12-13T09:42:49.208Z,1012.61
2016-12-13T09:43:12.928Z,1013.03
2016-12-13T09:43:35.656Z,1012.70
2016-12-13T09:44:02.141Z,1012.66
2016-12-13T09:44:23.860Z,1012.61
2016-12-13T09:44:45.587Z,1012.99
2016-12-13T09:45:07.311Z,1012.71
2016-12-13T09:45:29.029Z,1012.72
2016-12-13T09:45:55.531Z,1012.70
2016-12-13T09:46:17.261Z,1012.81
2016-12-13T09:46:39.010Z,1012.63
2016-12-13T09:47:04.416Z,1012.83
2016-12-13T09:47:30.915Z,1012.93
2016-12-13T09:47:52.667Z,1012.93
2016-12-13T09:48:14.390Z,1012.98
2016-12-13T09:48:36.128Z,1012.65
2016-12-13T09:48:57.845Z,1012.77
2016-12-13T09:49:20.576Z,1012.99
2016-12-13T09:49:43.318Z,1012.96
2016-12-13T09:50:06.035Z,1012.65